Kahramanmaras Airport

Current Flights

Departures
Arrivals
Info
Name: Kahramanmaras Airport
Identifier:  KCM/LTCN
Local Time:  23. May 11:40
City
Kahramanmaras
  Turkey

Flights per Day
3 flights
Distance: 567km (352mi)
Punctuality
96% (0 flights per day delayed)
Delay Average: 22 minutes
Current Weather
 27 C (Humidity: 42%)
  3kt (5km/h / 3mph) from 210°
  Few clouds at 4,000 feet (1,219 meter)
  Scattered clouds at 10,000 feet (3,048 meter)
  Broken clouds at 20,000 feet (6,096 meter)
  9km (6 mi.)
No significant changes expected

 METAR LTCN 230750Z 21003KT 170V270 9999 FEW040 SCT100 BKN200 27/13 Q1015 NOSIG

Current Delays

Departures
N/A
Arrivals
N/A

Destinations

Top Destinations
Airport Flights
per week
Seats
per week
  Istanbul (IST) 14 2,289 2 327
  Ankara (ESB) 7 1,715 1 245
  Istanbul (SAW) <1 1,050 0 150
  Istanbul (ISL) <1 238 0 34
  Gaziantep (GZT) <1 42 0 6

Airlines & Planes

Top Airlines
Airline Flights
per Day
Seats
per Day
  Turkish Airlines 2 418
  SunExpress 1 195
  Pegasus <1 150
Top Plane Types
Manufacturer Model Flights Seats
Boeing B737-800 3.4/day 572/day 572.4333333333333
Airbus A319 1.0/day 127/day 127
Airbus A320 0.5/day 64/day 64.5